sensor_id;sensor_type;location;lat;lon;timestamp;temperature;humidity
13470;DHT22;6807;48.682;9.032;2023-02-01T00:02:05;2.00;1.00
13470;DHT22;6807;48.682;9.032;2023-02-01T00:04:34;2.00;1.00
13470;DHT22;6807;48.682;9.032;2023-02-01T00:07:02;2.00;1.00
13470;DHT22;6807;48.682;9.032;2023-02-01T00:09:29;2.00;1.00
13470;DHT22;6807;48.682;9.032;2023-02-01T00:11:56;2.00;1.00
13470;DHT22;6807;48.682;9.032;2023-02-01T00:14:25;2.90;1.00
13470;DHT22;6807;48.682;9.032;2023-02-01T00:16:51;2.00;1.00
13470;DHT22;6807;48.682;9.032;2023-02-01T00:19:18;2.00;1.00
13470;DHT22;6807;48.682;9.032;2023-02-01T00:21:45;2.00;1.00
13470;DHT22;6807;48.682;9.032;2023-02-01T00:24:13;2.00;1.00
13470;DHT22;6807;48.682;9.032;2023-02-01T00:26:41;2.00;1.00
13470;DHT22;6807;48.682;9.032;2023-02-01T00:29:12;2.00;1.00
13470;DHT22;6807;48.682;9.032;2023-02-01T00:31:39;2.00;1.00
13470;DHT22;6807;48.682;9.032;2023-02-01T00:34:06;2.00;1.00
13470;DHT22;6807;48.682;9.032;2023-02-01T00:36:34;2.00;1.00
13470;DHT22;6807;48.682;9.032;2023-02-01T00:39:06;2.10;1.00
13470;DHT22;6807;48.682;9.032;2023-02-01T00:41:37;2.00;1.00
13470;DHT22;6807;48.682;9.032;2023-02-01T00:44:07;2.00;1.00
13470;DHT22;6807;48.682;9.032;2023-02-01T00:46:33;3.20;1.00
13470;DHT22;6807;48.682;9.032;2023-02-01T00:49:02;3.60;1.00
13470;DHT22;6807;48.682;9.032;2023-02-01T00:51:29;3.50;1.00
13470;DHT22;6807;48.682;9.032;2023-02-01T00:53:59;2.00;1.00
13470;DHT22;6807;48.682;9.032;2023-02-01T00:56:26;1.90;1.00
13470;DHT22;6807;48.682;9.032;2023-02-01T00:58:55;3.60;1.00
13470;DHT22;6807;48.682;9.032;2023-02-01T01:01:23;3.20;1.00
13470;DHT22;6807;48.682;9.032;2023-02-01T01:03:52;1.90;1.00
13470;DHT22;6807;48.682;9.032;2023-02-01T01:06:22;2.10;1.00
13470;DHT22;6807;48.682;9.032;2023-02-01T01:08:51;2.00;1.00
13470;DHT22;6807;48.682;9.032;2023-02-01T01:11:21;3.40;1.00
13470;DHT22;6807;48.682;9.032;2023-02-01T01:13:49;3.50;1.00
13470;DHT22;6807;48.682;9.032;2023-02-01T01:16:21;2.00;1.00
13470;DHT22;6807;48.682;9.032;2023-02-01T01:18:49;1.90;1.00
13470;DHT22;6807;48.682;9.032;2023-02-01T01:21:17;2.30;1.00
13470;DHT22;6807;48.682;9.032;2023-02-01T01:23:45;3.50;1.00
13470;DHT22;6807;48.682;9.032;2023-02-01T01:26:17;2.00;1.00
13470;DHT22;6807;48.682;9.032;2023-02-01T01:28:45;3.60;1.00
13470;DHT22;6807;48.682;9.032;2023-02-01T01:31:14;1.90;1.00
13470;DHT22;6807;48.682;9.032;2023-02-01T01:33:42;3.40;1.00
13470;DHT22;6807;48.682;9.032;2023-02-01T01:36:11;2.00;1.00
13470;DHT22;6807;48.682;9.032;2023-02-01T01:38:38;3.60;1.00
13470;DHT22;6807;48.682;9.032;2023-02-01T01:41:05;2.00;1.00
13470;DHT22;6807;48.682;9.032;2023-02-01T01:44:00;2.00;1.00
13470;DHT22;6807;48.682;9.032;2023-02-01T01:46:29;2.10;1.00
13470;DHT22;6807;48.682;9.032;2023-02-01T01:49:05;2.10;1.00
13470;DHT22;6807;48.682;9.032;2023-02-01T01:51:36;2.10;1.00
13470;DHT22;6807;48.682;9.032;2023-02-01T01:54:08;2.10;1.00
13470;DHT22;6807;48.682;9.032;2023-02-01T01:56:39;2.10;1.00
13470;DHT22;6807;48.682;9.032;2023-02-01T01:59:07;2.10;1.00
13470;DHT22;6807;48.682;9.032;2023-02-01T02:01:35;2.10;1.00
13470;DHT22;6807;48.682;9.032;2023-02-01T02:04:05;2.10;1.00
13470;DHT22;6807;48.682;9.032;2023-02-01T02:06:39;2.10;1.00
13470;DHT22;6807;48.682;9.032;2023-02-01T02:09:07;2.10;1.00
13470;DHT22;6807;48.682;9.032;2023-02-01T02:11:34;2.10;1.00
13470;DHT22;6807;48.682;9.032;2023-02-01T02:14:01;2.10;1.00
13470;DHT22;6807;48.682;9.032;2023-02-01T02:16:43;2.20;1.00
13470;DHT22;6807;48.682;9.032;2023-02-01T02:19:41;2.10;1.00
13470;DHT22;6807;48.682;9.032;2023-02-01T02:25:42;2.20;1.00
13470;DHT22;6807;48.682;9.032;2023-02-01T02:28:35;2.20;1.00
13470;DHT22;6807;48.682;9.032;2023-02-01T02:34:04;2.20;1.00
13470;DHT22;6807;48.682;9.032;2023-02-01T02:36:39;2.20;1.00
13470;DHT22;6807;48.682;9.032;2023-02-01T02:39:16;2.20;1.00
13470;DHT22;6807;48.682;9.032;2023-02-01T02:41:49;2.30;1.00
13470;DHT22;6807;48.682;9.032;2023-02-01T02:44:45;2.30;1.00
13470;DHT22;6807;48.682;9.032;2023-02-01T02:47:38;2.30;1.00
13470;DHT22;6807;48.682;9.032;2023-02-01T02:50:15;2.30;1.00
13470;DHT22;6807;48.682;9.032;2023-02-01T02:53:03;2.30;1.00
13470;DHT22;6807;48.682;9.032;2023-02-01T02:55:52;2.30;1.00
13470;DHT22;6807;48.682;9.032;2023-02-01T02:58:33;2.60;1.00
13470;DHT22;6807;48.682;9.032;2023-02-01T03:01:17;2.30;1.00
13470;DHT22;6807;48.682;9.032;2023-02-01T03:04:02;2.30;1.00
13470;DHT22;6807;48.682;9.032;2023-02-01T03:06:37;2.30;1.00
13470;DHT22;6807;48.682;9.032;2023-02-01T03:09:11;2.40;1.00
13470;DHT22;6807;48.682;9.032;2023-02-01T03:11:40;2.30;1.00
13470;DHT22;6807;48.682;9.032;2023-02-01T03:14:29;2.30;1.00
13470;DHT22;6807;48.682;9.032;2023-02-01T03:17:01;2.30;1.00
13470;DHT22;6807;48.682;9.032;2023-02-01T03:19:33;2.40;1.00
13470;DHT22;6807;48.682;9.032;2023-02-01T03:22:05;2.40;1.00
13470;DHT22;6807;48.682;9.032;2023-02-01T03:24:37;2.40;1.00
13470;DHT22;6807;48.682;9.032;2023-02-01T03:27:08;3.00;1.00
13470;DHT22;6807;48.682;9.032;2023-02-01T03:29:40;2.30;1.00
13470;DHT22;6807;48.682;9.032;2023-02-01T03:32:12;2.30;1.00
13470;DHT22;6807;48.682;9.032;2023-02-01T03:34:40;2.30;1.00
13470;DHT22;6807;48.682;9.032;2023-02-01T03:37:10;2.30;1.00
13470;DHT22;6807;48.682;9.032;2023-02-01T03:39:45;2.30;1.00
13470;DHT22;6807;48.682;9.032;2023-02-01T05:25:44;2.50;99.90
13470;DHT22;6807;48.682;9.032;2023-02-01T05:28:10;2.60;99.90
13470;DHT22;6807;48.682;9.032;2023-02-01T05:30:37;2.60;99.90
13470;DHT22;6807;48.682;9.032;2023-02-01T05:33:04;3.60;99.90
13470;DHT22;6807;48.682;9.032;2023-02-01T05:35:31;4.00;99.90
13470;DHT22;6807;48.682;9.032;2023-02-01T05:37:58;2.50;99.90
13470;DHT22;6807;48.682;9.032;2023-02-01T05:40:25;3.80;99.90
13470;DHT22;6807;48.682;9.032;2023-02-01T05:42:54;3.30;99.90
13470;DHT22;6807;48.682;9.032;2023-02-01T05:48:29;1.20;99.90
13470;DHT22;6807;48.682;9.032;2023-02-01T05:50:56;2.60;99.90
13470;DHT22;6807;48.682;9.032;2023-02-01T05:53:23;3.90;99.90
13470;DHT22;6807;48.682;9.032;2023-02-01T05:55:52;2.60;99.90
13470;DHT22;6807;48.682;9.032;2023-02-01T06:13:39;2.60;1.00
13470;DHT22;6807;48.682;9.032;2023-02-01T06:16:12;2.70;1.00
13470;DHT22;6807;48.682;9.032;2023-02-01T06:18:40;3.50;1.00
13470;DHT22;6807;48.682;9.032;2023-02-01T06:21:08;3.70;1.00
13470;DHT22;6807;48.682;9.032;2023-02-01T06:23:35;4.00;1.00
13470;DHT22;6807;48.682;9.032;2023-02-01T06:26:03;3.70;1.00
13470;DHT22;6807;48.682;9.032;2023-02-01T06:28:31;2.70;1.00
13470;DHT22;6807;48.682;9.032;2023-02-01T06:31:13;2.70;99.90
13470;DHT22;6807;48.682;9.032;2023-02-01T06:33:40;3.60;99.90
13470;DHT22;6807;48.682;9.032;2023-02-01T06:36:09;3.60;99.90
13470;DHT22;6807;48.682;9.032;2023-02-01T06:38:43;2.70;99.90
13470;DHT22;6807;48.682;9.032;2023-02-01T06:41:10;2.70;99.90
13470;DHT22;6807;48.682;9.032;2023-02-01T06:43:38;4.30;99.90
13470;DHT22;6807;48.682;9.032;2023-02-01T06:46:07;3.20;99.90
13470;DHT22;6807;48.682;9.032;2023-02-01T06:48:36;2.70;99.90
13470;DHT22;6807;48.682;9.032;2023-02-01T06:51:03;2.60;99.90
13470;DHT22;6807;48.682;9.032;2023-02-01T06:53:35;2.60;99.90
13470;DHT22;6807;48.682;9.032;2023-02-01T06:56:03;2.70;99.90
13470;DHT22;6807;48.682;9.032;2023-02-01T06:58:30;2.70;99.90
13470;DHT22;6807;48.682;9.032;2023-02-01T07:00:58;2.70;99.90
13470;DHT22;6807;48.682;9.032;2023-02-01T07:03:26;2.70;99.90
13470;DHT22;6807;48.682;9.032;2023-02-01T07:05:55;2.70;99.90
13470;DHT22;6807;48.682;9.032;2023-02-01T07:08:24;3.70;99.90
13470;DHT22;6807;48.682;9.032;2023-02-01T07:10:52;2.70;99.90
13470;DHT22;6807;48.682;9.032;2023-02-01T07:13:20;2.70;99.90
13470;DHT22;6807;48.682;9.032;2023-02-01T07:15:47;2.70;99.90
13470;DHT22;6807;48.682;9.032;2023-02-01T07:18:14;3.90;99.90
13470;DHT22;6807;48.682;9.032;2023-02-01T07:20:42;2.70;99.90
13470;DHT22;6807;48.682;9.032;2023-02-01T07:23:10;2.80;99.90
13470;DHT22;6807;48.682;9.032;2023-02-01T07:28:54;2.80;99.90
13470;DHT22;6807;48.682;9.032;2023-02-01T07:31:22;2.90;99.90
13470;DHT22;6807;48.682;9.032;2023-02-01T07:33:51;2.90;99.90
13470;DHT22;6807;48.682;9.032;2023-02-01T07:36:20;3.00;99.90
13470;DHT22;6807;48.682;9.032;2023-02-01T07:38:47;2.90;99.90
13470;DHT22;6807;48.682;9.032;2023-02-01T07:41:14;3.00;99.90
13470;DHT22;6807;48.682;9.032;2023-02-01T07:43:41;4.30;99.90
13470;DHT22;6807;48.682;9.032;2023-02-01T07:46:09;2.90;99.90
13470;DHT22;6807;48.682;9.032;2023-02-01T07:48:36;2.90;99.90
13470;DHT22;6807;48.682;9.032;2023-02-01T07:51:04;2.90;99.90
13470;DHT22;6807;48.682;9.032;2023-02-01T07:53:34;2.90;99.90
13470;DHT22;6807;48.682;9.032;2023-02-01T07:56:01;3.00;99.90
13470;DHT22;6807;48.682;9.032;2023-02-01T07:58:29;3.00;99.90
13470;DHT22;6807;48.682;9.032;2023-02-01T08:00:56;3.10;99.90
13470;DHT22;6807;48.682;9.032;2023-02-01T08:03:40;3.10;99.90
13470;DHT22;6807;48.682;9.032;2023-02-01T08:06:07;4.60;99.90
13470;DHT22;6807;48.682;9.032;2023-02-01T08:08:36;4.60;99.90
13470;DHT22;6807;48.682;9.032;2023-02-01T08:11:04;4.60;99.90
13470;DHT22;6807;48.682;9.032;2023-02-01T08:13:33;3.80;99.90
13470;DHT22;6807;48.682;9.032;2023-02-01T08:16:00;3.20;99.90
13470;DHT22;6807;48.682;9.032;2023-02-01T08:18:27;3.20;99.90
13470;DHT22;6807;48.682;9.032;2023-02-01T08:20:55;3.30;99.90
13470;DHT22;6807;48.682;9.032;2023-02-01T08:23:23;3.30;99.90
13470;DHT22;6807;48.682;9.032;2023-02-01T08:25:51;4.20;99.90
13470;DHT22;6807;48.682;9.032;2023-02-01T08:28:18;4.60;99.90
13470;DHT22;6807;48.682;9.032;2023-02-01T08:30:45;3.30;99.90
13470;DHT22;6807;48.682;9.032;2023-02-01T08:33:12;3.30;99.90
13470;DHT22;6807;48.682;9.032;2023-02-01T08:35:40;3.30;99.90
13470;DHT22;6807;48.682;9.032;2023-02-01T08:38:06;4.20;99.90
13470;DHT22;6807;48.682;9.032;2023-02-01T08:40:33;3.30;99.90
13470;DHT22;6807;48.682;9.032;2023-02-01T08:43:02;4.70;99.90
13470;DHT22;6807;48.682;9.032;2023-02-01T08:45:29;3.70;99.90
13470;DHT22;6807;48.682;9.032;2023-02-01T08:47:57;4.80;99.90
13470;DHT22;6807;48.682;9.032;2023-02-01T08:50:25;3.60;99.90
13470;DHT22;6807;48.682;9.032;2023-02-01T08:52:52;3.60;99.90
13470;DHT22;6807;48.682;9.032;2023-02-01T08:55:20;4.20;99.90
13470;DHT22;6807;48.682;9.032;2023-02-01T08:57:47;4.60;99.90
13470;DHT22;6807;48.682;9.032;2023-02-01T09:00:16;2.90;99.90
13470;DHT22;6807;48.682;9.032;2023-02-01T09:02:44;3.70;99.90
13470;DHT22;6807;48.682;9.032;2023-02-01T09:05:11;4.80;99.90
13470;DHT22;6807;48.682;9.032;2023-02-01T09:07:40;4.50;99.90
13470;DHT22;6807;48.682;9.032;2023-02-01T09:10:07;4.50;99.90
13470;DHT22;6807;48.682;9.032;2023-02-01T09:12:35;3.60;99.90
13470;DHT22;6807;48.682;9.032;2023-02-01T09:15:04;4.40;99.90
13470;DHT22;6807;48.682;9.032;2023-02-01T09:17:34;3.50;99.90
13470;DHT22;6807;48.682;9.032;2023-02-01T11:48:43;4.80;1.00
13470;DHT22;6807;48.682;9.032;2023-02-01T11:51:25;6.20;1.00
13470;DHT22;6807;48.682;9.032;2023-02-01T11:54:11;5.50;1.00
13470;DHT22;6807;48.682;9.032;2023-02-01T11:56:51;5.30;1.00
13470;DHT22;6807;48.682;9.032;2023-02-01T11:59:42;6.20;1.00
13470;DHT22;6807;48.682;9.032;2023-02-01T12:02:27;4.70;1.00
13470;DHT22;6807;48.682;9.032;2023-02-01T12:05:25;4.70;1.00
13470;DHT22;6807;48.682;9.032;2023-02-01T12:08:25;4.70;1.00
13470;DHT22;6807;48.682;9.032;2023-02-01T12:11:04;4.70;1.00
13470;DHT22;6807;48.682;9.032;2023-02-01T12:13:51;4.50;1.00
13470;DHT22;6807;48.682;9.032;2023-02-01T12:16:28;5.10;1.00
13470;DHT22;6807;48.682;9.032;2023-02-01T12:19:27;6.20;1.00
13470;DHT22;6807;48.682;9.032;2023-02-01T12:22:16;4.60;1.00
13470;DHT22;6807;48.682;9.032;2023-02-01T12:25:05;4.60;1.00
13470;DHT22;6807;48.682;9.032;2023-02-01T12:30:50;4.60;1.00
13470;DHT22;6807;48.682;9.032;2023-02-01T12:33:30;4.40;1.00
13470;DHT22;6807;48.682;9.032;2023-02-01T12:36:12;4.60;1.00
13470;DHT22;6807;48.682;9.032;2023-02-01T12:38:50;4.60;1.00
13470;DHT22;6807;48.682;9.032;2023-02-01T12:41:46;4.60;1.00
13470;DHT22;6807;48.682;9.032;2023-02-01T12:44:24;4.60;1.00
13470;DHT22;6807;48.682;9.032;2023-02-01T12:46:57;4.50;1.00
13470;DHT22;6807;48.682;9.032;2023-02-01T12:49:41;4.50;1.00
13470;DHT22;6807;48.682;9.032;2023-02-01T12:57:55;4.50;1.00
13470;DHT22;6807;48.682;9.032;2023-02-01T13:00:30;4.60;1.00
13470;DHT22;6807;48.682;9.032;2023-02-01T13:03:11;4.60;1.00
13470;DHT22;6807;48.682;9.032;2023-02-01T13:05:51;4.90;1.00
13470;DHT22;6807;48.682;9.032;2023-02-01T13:08:23;5.80;1.00
13470;DHT22;6807;48.682;9.032;2023-02-01T13:10:56;5.00;1.00
13470;DHT22;6807;48.682;9.032;2023-02-01T13:13:30;4.50;1.00
13470;DHT22;6807;48.682;9.032;2023-02-01T13:16:11;4.60;1.00
13470;DHT22;6807;48.682;9.032;2023-02-01T13:18:42;4.50;1.00
13470;DHT22;6807;48.682;9.032;2023-02-01T13:21:13;4.50;1.00
13470;DHT22;6807;48.682;9.032;2023-02-01T13:23:42;5.00;1.00
13470;DHT22;6807;48.682;9.032;2023-02-01T13:26:11;4.30;1.00
13470;DHT22;6807;48.682;9.032;2023-02-01T13:28:44;4.60;1.00
13470;DHT22;6807;48.682;9.032;2023-02-01T13:31:52;5.30;1.00
13470;DHT22;6807;48.682;9.032;2023-02-01T13:37:39;4.60;1.00
13470;DHT22;6807;48.682;9.032;2023-02-01T13:40:21;4.60;1.00
13470;DHT22;6807;48.682;9.032;2023-02-01T13:42:54;4.50;1.00
13470;DHT22;6807;48.682;9.032;2023-02-01T13:45:25;4.60;1.00
13470;DHT22;6807;48.682;9.032;2023-02-01T13:47:56;4.60;1.00
13470;DHT22;6807;48.682;9.032;2023-02-01T13:50:26;5.60;1.00
13470;DHT22;6807;48.682;9.032;2023-02-01T13:52:56;4.50;1.00
13470;DHT22;6807;48.682;9.032;2023-02-01T13:55:33;4.60;1.00
13470;DHT22;6807;48.682;9.032;2023-02-01T13:58:04;5.60;1.00
13470;DHT22;6807;48.682;9.032;2023-02-01T14:00:34;5.40;1.00
13470;DHT22;6807;48.682;9.032;2023-02-01T14:03:13;4.40;1.00
13470;DHT22;6807;48.682;9.032;2023-02-01T14:06:01;4.70;1.00
13470;DHT22;6807;48.682;9.032;2023-02-01T14:08:43;4.50;1.00
13470;DHT22;6807;48.682;9.032;2023-02-01T14:11:34;4.70;1.00
13470;DHT22;6807;48.682;9.032;2023-02-01T14:17:40;4.60;1.00
13470;DHT22;6807;48.682;9.032;2023-02-01T14:23:14;4.50;1.00
13470;DHT22;6807;48.682;9.032;2023-02-01T14:25:42;4.50;1.00
13470;DHT22;6807;48.682;9.032;2023-02-01T14:28:29;4.50;1.00
13470;DHT22;6807;48.682;9.032;2023-02-01T14:30:57;4.50;1.00
13470;DHT22;6807;48.682;9.032;2023-02-01T14:33:27;4.50;1.00
13470;DHT22;6807;48.682;9.032;2023-02-01T14:36:03;4.50;1.00
13470;DHT22;6807;48.682;9.032;2023-02-01T14:38:32;5.40;1.00
13470;DHT22;6807;48.682;9.032;2023-02-01T14:41:26;4.50;1.00
13470;DHT22;6807;48.682;9.032;2023-02-01T14:44:23;4.50;1.00
13470;DHT22;6807;48.682;9.032;2023-02-01T14:50:34;4.60;1.00
13470;DHT22;6807;48.682;9.032;2023-02-01T14:53:14;4.50;1.00
13470;DHT22;6807;48.682;9.032;2023-02-01T14:55:53;4.50;1.00
13470;DHT22;6807;48.682;9.032;2023-02-01T14:58:31;4.50;1.00
13470;DHT22;6807;48.682;9.032;2023-02-01T15:01:00;4.70;1.00
13470;DHT22;6807;48.682;9.032;2023-02-01T15:03:54;4.50;1.00
13470;DHT22;6807;48.682;9.032;2023-02-01T15:06:36;5.60;1.00
13470;DHT22;6807;48.682;9.032;2023-02-01T15:09:15;3.40;1.00
13470;DHT22;6807;48.682;9.032;2023-02-01T15:11:56;4.60;1.00
13470;DHT22;6807;48.682;9.032;2023-02-01T15:14:37;6.20;1.00
13470;DHT22;6807;48.682;9.032;2023-02-01T15:17:19;4.50;1.00
13470;DHT22;6807;48.682;9.032;2023-02-01T15:19:53;6.00;1.00
13470;DHT22;6807;48.682;9.032;2023-02-01T15:22:51;5.40;1.00
13470;DHT22;6807;48.682;9.032;2023-02-01T15:25:26;4.20;1.00
13470;DHT22;6807;48.682;9.032;2023-02-01T15:28:14;4.30;1.00
13470;DHT22;6807;48.682;9.032;2023-02-01T15:30:53;5.20;1.00
13470;DHT22;6807;48.682;9.032;2023-02-01T15:33:30;5.60;1.00
13470;DHT22;6807;48.682;9.032;2023-02-01T15:36:09;4.50;1.00
13470;DHT22;6807;48.682;9.032;2023-02-01T15:38:43;5.10;1.00
13470;DHT22;6807;48.682;9.032;2023-02-01T15:41:33;6.10;1.00
13470;DHT22;6807;48.682;9.032;2023-02-01T15:44:28;4.20;1.00
13470;DHT22;6807;48.682;9.032;2023-02-01T15:47:23;3.60;1.00
13470;DHT22;6807;48.682;9.032;2023-02-01T15:50:12;4.50;1.00
13470;DHT22;6807;48.682;9.032;2023-02-01T15:53:00;5.00;1.00
13470;DHT22;6807;48.682;9.032;2023-02-01T15:55:38;4.20;1.00
13470;DHT22;6807;48.682;9.032;2023-02-01T15:58:18;4.20;1.00
13470;DHT22;6807;48.682;9.032;2023-02-01T16:00:48;4.20;1.00
13470;DHT22;6807;48.682;9.032;2023-02-01T16:03:36;4.20;1.00
13470;DHT22;6807;48.682;9.032;2023-02-01T16:06:06;4.20;1.00
13470;DHT22;6807;48.682;9.032;2023-02-01T16:08:34;4.20;1.00
13470;DHT22;6807;48.682;9.032;2023-02-01T16:29:52;4.00;1.00
13470;DHT22;6807;48.682;9.032;2023-02-01T16:32:22;4.00;1.00
13470;DHT22;6807;48.682;9.032;2023-02-01T16:34:49;4.00;1.00
13470;DHT22;6807;48.682;9.032;2023-02-01T16:37:22;4.30;1.00
13470;DHT22;6807;48.682;9.032;2023-02-01T16:42:43;4.90;1.00
13470;DHT22;6807;48.682;9.032;2023-02-01T16:45:12;5.40;1.00
13470;DHT22;6807;48.682;9.032;2023-02-01T16:48:04;4.10;1.00
13470;DHT22;6807;48.682;9.032;2023-02-01T16:50:33;4.00;1.00
13470;DHT22;6807;48.682;9.032;2023-02-01T16:53:37;5.00;1.00
13470;DHT22;6807;48.682;9.032;2023-02-01T16:56:12;4.00;1.00
13470;DHT22;6807;48.682;9.032;2023-02-01T16:59:29;5.20;1.00
13470;DHT22;6807;48.682;9.032;2023-02-01T17:01:57;4.00;1.00
13470;DHT22;6807;48.682;9.032;2023-02-01T17:04:24;5.50;1.00
13470;DHT22;6807;48.682;9.032;2023-02-01T17:06:51;4.00;1.00
13470;DHT22;6807;48.682;9.032;2023-02-01T17:09:18;4.00;1.00
13470;DHT22;6807;48.682;9.032;2023-02-01T17:11:46;5.30;1.00
13470;DHT22;6807;48.682;9.032;2023-02-01T17:14:16;4.00;1.00
13470;DHT22;6807;48.682;9.032;2023-02-01T17:16:44;4.00;1.00
13470;DHT22;6807;48.682;9.032;2023-02-01T17:19:15;4.00;1.00
13470;DHT22;6807;48.682;9.032;2023-02-01T17:21:44;4.10;1.00
13470;DHT22;6807;48.682;9.032;2023-02-01T17:24:12;5.10;1.00
13470;DHT22;6807;48.682;9.032;2023-02-01T17:26:39;5.50;1.00
13470;DHT22;6807;48.682;9.032;2023-02-01T17:29:06;4.70;1.00
13470;DHT22;6807;48.682;9.032;2023-02-01T17:31:36;4.00;1.00
13470;DHT22;6807;48.682;9.032;2023-02-01T17:34:04;5.30;1.00
13470;DHT22;6807;48.682;9.032;2023-02-01T17:36:32;5.30;1.00
13470;DHT22;6807;48.682;9.032;2023-02-01T17:39:01;4.00;1.00
13470;DHT22;6807;48.682;9.032;2023-02-01T17:41:31;4.00;1.00
13470;DHT22;6807;48.682;9.032;2023-02-01T17:43:58;3.90;1.00
13470;DHT22;6807;48.682;9.032;2023-02-01T17:46:25;4.20;1.00
13470;DHT22;6807;48.682;9.032;2023-02-01T17:48:56;4.00;1.00
13470;DHT22;6807;48.682;9.032;2023-02-01T17:51:25;4.00;1.00
13470;DHT22;6807;48.682;9.032;2023-02-01T17:53:54;4.00;1.00
13470;DHT22;6807;48.682;9.032;2023-02-01T17:56:23;4.00;1.00
13470;DHT22;6807;48.682;9.032;2023-02-01T17:58:50;4.60;1.00
13470;DHT22;6807;48.682;9.032;2023-02-01T18:01:20;3.80;1.00
13470;DHT22;6807;48.682;9.032;2023-02-01T18:03:47;3.80;1.00
13470;DHT22;6807;48.682;9.032;2023-02-01T18:06:17;3.70;1.00
13470;DHT22;6807;48.682;9.032;2023-02-01T18:08:45;3.70;1.00
13470;DHT22;6807;48.682;9.032;2023-02-01T18:11:15;3.70;1.00
13470;DHT22;6807;48.682;9.032;2023-02-01T18:13:42;3.80;1.00
13470;DHT22;6807;48.682;9.032;2023-02-01T18:16:20;3.90;1.00
13470;DHT22;6807;48.682;9.032;2023-02-01T18:18:53;3.90;1.00
13470;DHT22;6807;48.682;9.032;2023-02-01T18:21:22;3.90;1.00
13470;DHT22;6807;48.682;9.032;2023-02-01T18:23:49;4.00;1.00
13470;DHT22;6807;48.682;9.032;2023-02-01T18:26:17;4.00;1.00
13470;DHT22;6807;48.682;9.032;2023-02-01T18:28:44;3.90;1.00
13470;DHT22;6807;48.682;9.032;2023-02-01T18:31:20;3.90;1.00
13470;DHT22;6807;48.682;9.032;2023-02-01T18:33:48;3.80;1.00
13470;DHT22;6807;48.682;9.032;2023-02-01T18:36:15;3.90;1.00
13470;DHT22;6807;48.682;9.032;2023-02-01T18:38:41;3.90;1.00
13470;DHT22;6807;48.682;9.032;2023-02-01T18:41:14;3.90;1.00
13470;DHT22;6807;48.682;9.032;2023-02-01T18:43:43;3.90;1.00
13470;DHT22;6807;48.682;9.032;2023-02-01T18:46:10;4.00;1.00
13470;DHT22;6807;48.682;9.032;2023-02-01T18:48:37;3.90;1.00
13470;DHT22;6807;48.682;9.032;2023-02-01T18:51:05;4.10;1.00
13470;DHT22;6807;48.682;9.032;2023-02-01T18:53:33;4.00;1.00
13470;DHT22;6807;48.682;9.032;2023-02-01T18:56:01;4.00;1.00
13470;DHT22;6807;48.682;9.032;2023-02-01T18:58:28;4.10;1.00
13470;DHT22;6807;48.682;9.032;2023-02-01T19:01:04;4.60;1.00
13470;DHT22;6807;48.682;9.032;2023-02-01T19:03:32;4.10;1.00
13470;DHT22;6807;48.682;9.032;2023-02-01T19:05:59;4.10;1.00
13470;DHT22;6807;48.682;9.032;2023-02-01T19:08:26;4.20;1.00
13470;DHT22;6807;48.682;9.032;2023-02-01T19:10:56;4.20;1.00
13470;DHT22;6807;48.682;9.032;2023-02-01T19:13:27;4.20;1.00
13470;DHT22;6807;48.682;9.032;2023-02-01T19:15:57;4.20;1.00
13470;DHT22;6807;48.682;9.032;2023-02-01T19:18:27;4.40;1.00
13470;DHT22;6807;48.682;9.032;2023-02-01T19:21:01;4.30;1.00
13470;DHT22;6807;48.682;9.032;2023-02-01T19:23:28;4.30;1.00
13470;DHT22;6807;48.682;9.032;2023-02-01T19:25:55;4.30;1.00
13470;DHT22;6807;48.682;9.032;2023-02-01T19:28:22;4.20;1.00
13470;DHT22;6807;48.682;9.032;2023-02-01T19:30:49;5.30;1.00
13470;DHT22;6807;48.682;9.032;2023-02-01T19:33:17;4.70;1.00
13470;DHT22;6807;48.682;9.032;2023-02-01T19:35:47;4.30;1.00
13470;DHT22;6807;48.682;9.032;2023-02-01T19:38:14;4.30;1.00
13470;DHT22;6807;48.682;9.032;2023-02-01T19:40:41;4.20;1.00
13470;DHT22;6807;48.682;9.032;2023-02-01T19:43:08;4.30;1.00
13470;DHT22;6807;48.682;9.032;2023-02-01T19:45:34;5.20;1.00
13470;DHT22;6807;48.682;9.032;2023-02-01T19:48:03;4.20;1.00
13470;DHT22;6807;48.682;9.032;2023-02-01T19:50:33;4.20;1.00
13470;DHT22;6807;48.682;9.032;2023-02-01T19:53:00;4.20;1.00
13470;DHT22;6807;48.682;9.032;2023-02-01T19:55:27;4.40;1.00
13470;DHT22;6807;48.682;9.032;2023-02-01T19:57:55;4.20;1.00
13470;DHT22;6807;48.682;9.032;2023-02-01T20:00:23;4.20;1.00
13470;DHT22;6807;48.682;9.032;2023-02-01T20:02:50;4.20;1.00
13470;DHT22;6807;48.682;9.032;2023-02-01T20:05:18;4.20;1.00
13470;DHT22;6807;48.682;9.032;2023-02-01T20:07:48;4.20;1.00
13470;DHT22;6807;48.682;9.032;2023-02-01T20:10:19;5.90;1.00
13470;DHT22;6807;48.682;9.032;2023-02-01T20:12:47;5.30;1.00
13470;DHT22;6807;48.682;9.032;2023-02-01T20:15:20;4.90;1.00
13470;DHT22;6807;48.682;9.032;2023-02-01T20:17:47;5.20;1.00
13470;DHT22;6807;48.682;9.032;2023-02-01T20:20:14;6.10;1.00
13470;DHT22;6807;48.682;9.032;2023-02-01T20:22:41;4.30;1.00
13470;DHT22;6807;48.682;9.032;2023-02-01T20:25:13;4.30;1.00
13470;DHT22;6807;48.682;9.032;2023-02-01T20:27:40;4.30;1.00
13470;DHT22;6807;48.682;9.032;2023-02-01T20:30:08;5.60;1.00
13470;DHT22;6807;48.682;9.032;2023-02-01T20:32:35;4.20;1.00
13470;DHT22;6807;48.682;9.032;2023-02-01T20:35:02;4.20;1.00
13470;DHT22;6807;48.682;9.032;2023-02-01T20:37:30;4.30;1.00
13470;DHT22;6807;48.682;9.032;2023-02-01T20:40:01;4.20;1.00
13470;DHT22;6807;48.682;9.032;2023-02-01T20:42:29;4.20;1.00
13470;DHT22;6807;48.682;9.032;2023-02-01T20:45:00;5.00;1.00
13470;DHT22;6807;48.682;9.032;2023-02-01T20:47:26;4.20;1.00
13470;DHT22;6807;48.682;9.032;2023-02-01T20:49:54;4.20;1.00
13470;DHT22;6807;48.682;9.032;2023-02-01T20:52:25;4.20;1.00
13470;DHT22;6807;48.682;9.032;2023-02-01T20:54:53;4.10;1.00
13470;DHT22;6807;48.682;9.032;2023-02-01T20:57:20;4.20;1.00
13470;DHT22;6807;48.682;9.032;2023-02-01T20:59:55;5.00;1.00
13470;DHT22;6807;48.682;9.032;2023-02-01T21:02:23;5.60;1.00
13470;DHT22;6807;48.682;9.032;2023-02-01T21:04:50;4.80;1.00
13470;DHT22;6807;48.682;9.032;2023-02-01T21:07:17;4.70;1.00
13470;DHT22;6807;48.682;9.032;2023-02-01T21:09:44;4.20;1.00
13470;DHT22;6807;48.682;9.032;2023-02-01T21:12:11;4.20;1.00
13470;DHT22;6807;48.682;9.032;2023-02-01T21:14:38;4.20;1.00
13470;DHT22;6807;48.682;9.032;2023-02-01T21:17:09;4.20;1.00
13470;DHT22;6807;48.682;9.032;2023-02-01T21:19:36;5.90;1.00
13470;DHT22;6807;48.682;9.032;2023-02-01T21:22:08;4.20;1.00
13470;DHT22;6807;48.682;9.032;2023-02-01T21:24:35;4.20;1.00
13470;DHT22;6807;48.682;9.032;2023-02-01T21:27:03;4.30;1.00
13470;DHT22;6807;48.682;9.032;2023-02-01T21:29:29;4.30;1.00
13470;DHT22;6807;48.682;9.032;2023-02-01T21:31:57;4.20;1.00
13470;DHT22;6807;48.682;9.032;2023-02-01T21:34:28;4.20;1.00
13470;DHT22;6807;48.682;9.032;2023-02-01T21:36:55;4.30;1.00
13470;DHT22;6807;48.682;9.032;2023-02-01T21:39:23;4.30;1.00
13470;DHT22;6807;48.682;9.032;2023-02-01T21:41:51;4.30;1.00
13470;DHT22;6807;48.682;9.032;2023-02-01T21:44:36;4.30;1.00
13470;DHT22;6807;48.682;9.032;2023-02-01T21:47:03;5.10;1.00
13470;DHT22;6807;48.682;9.032;2023-02-01T21:52:52;4.30;1.00
13470;DHT22;6807;48.682;9.032;2023-02-01T21:55:19;4.30;1.00
13470;DHT22;6807;48.682;9.032;2023-02-01T21:57:46;4.20;1.00
13470;DHT22;6807;48.682;9.032;2023-02-01T22:00:16;4.20;1.00
13470;DHT22;6807;48.682;9.032;2023-02-01T22:02:43;4.20;1.00
13470;DHT22;6807;48.682;9.032;2023-02-01T22:05:12;4.20;1.00
13470;DHT22;6807;48.682;9.032;2023-02-01T22:07:39;4.20;1.00
13470;DHT22;6807;48.682;9.032;2023-02-01T22:10:09;4.30;1.00
13470;DHT22;6807;48.682;9.032;2023-02-01T22:12:37;4.30;1.00
13470;DHT22;6807;48.682;9.032;2023-02-01T22:15:05;4.30;1.00